createdAt,value
2023-01-13T04:56:16.728Z,5.35
2023-01-13T04:59:19.228Z,5.35
2023-01-13T05:02:21.437Z,4.91
2023-01-13T05:05:24.071Z,4.89
2023-01-13T05:08:26.262Z,4.94
2023-01-13T05:11:47.683Z,4.98
2023-01-13T05:15:08.600Z,4.76
2023-01-13T05:18:11.351Z,4.76
2023-01-13T05:21:33.416Z,4.93
2023-01-13T05:24:54.379Z,4.88
2023-01-13T05:27:59.016Z,4.98
2023-01-13T05:31:01.946Z,5.02
2023-01-13T05:34:04.140Z,5.10
2023-01-13T05:37:07.911Z,5.00
2023-01-13T05:40:30.351Z,4.92
2023-01-13T05:43:34.689Z,5.05
2023-01-13T05:46:38.526Z,5.08
2023-01-13T05:49:42.333Z,5.11
2023-01-13T05:52:44.475Z,5.06
2023-01-13T05:55:46.873Z,4.94
2023-01-13T05:58:48.988Z,4.85
2023-01-13T06:01:51.398Z,4.96
2023-01-13T06:04:53.832Z,4.67
2023-01-13T06:08:00.306Z,4.76
2023-01-13T06:11:02.659Z,4.88
2023-01-13T06:14:04.738Z,4.85
2023-01-13T06:17:12.567Z,4.86
2023-01-13T06:20:15.734Z,4.71
2023-01-13T06:23:18.997Z,4.79
2023-01-13T06:26:24.814Z,4.71
2023-01-13T06:29:27.204Z,4.64
2023-01-13T06:32:35.422Z,4.59
2023-01-13T06:35:40.458Z,4.78
2023-01-13T06:38:47.719Z,4.77
2023-01-13T06:42:12.546Z,4.78
2023-01-13T06:45:14.762Z,4.91
2023-01-13T06:48:18.781Z,4.64
2023-01-13T06:51:20.942Z,4.99
2023-01-13T06:54:23.301Z,4.87
2023-01-13T06:57:25.419Z,4.91
2023-01-13T07:00:28.078Z,5.05
2023-01-13T07:03:30.305Z,5.12
2023-01-13T07:06:32.779Z,5.21
2023-01-13T07:09:34.878Z,5.21
2023-01-13T07:12:59.699Z,5.27
2023-01-13T07:16:04.576Z,5.22
2023-01-13T07:19:10.489Z,5.35
2023-01-13T07:22:14.123Z,5.39
2023-01-13T07:25:16.485Z,5.21
2023-01-13T07:28:18.626Z,5.18
2023-01-13T07:31:21.675Z,5.25
2023-01-13T07:34:23.828Z,5.25
2023-01-13T07:37:26.232Z,5.32
2023-01-13T07:40:28.412Z,5.26
2023-01-13T07:43:33.564Z,5.34
2023-01-13T07:46:35.797Z,5.47
2023-01-13T07:49:38.206Z,5.44
2023-01-13T07:52:40.434Z,5.37
2023-01-13T07:55:43.809Z,5.54
2023-01-13T07:58:50.310Z,5.56
2023-01-13T08:01:53.448Z,5.54
2023-01-13T08:04:56.013Z,5.63
2023-01-13T08:07:58.135Z,5.54
2023-01-13T08:11:05.281Z,5.77
2023-01-13T08:14:07.394Z,5.86
2023-01-13T08:17:10.340Z,5.79
2023-01-13T08:20:12.539Z,5.75
2023-01-13T08:23:15.358Z,5.88
2023-01-13T08:26:18.482Z,5.84
2023-01-13T08:29:20.891Z,5.89
2023-01-13T08:32:23.035Z,5.90
2023-01-13T08:35:25.449Z,5.91
2023-01-13T08:38:27.632Z,6.00
2023-01-13T08:42:05.542Z,6.04
2023-01-13T08:45:09.049Z,6.10
2023-01-13T08:48:11.503Z,6.00
2023-01-13T08:51:13.835Z,6.00
2023-01-13T08:54:17.535Z,6.20
2023-01-13T08:57:19.834Z,6.31
2023-01-13T09:00:22.429Z,6.22
2023-01-13T09:03:24.595Z,6.21
2023-01-13T09:06:27.130Z,6.03
2023-01-13T09:09:29.317Z,5.96
2023-01-13T09:12:50.542Z,5.95
2023-01-13T09:15:59.176Z,5.91
2023-01-13T09:19:01.672Z,5.92
2023-01-13T09:22:04.196Z,5.94
2023-01-13T09:25:06.917Z,6.08
2023-01-13T09:28:09.140Z,6.08
2023-01-13T09:31:11.592Z,5.98
2023-01-13T09:34:35.031Z,5.89
2023-01-13T09:37:39.679Z,5.94
2023-01-13T09:40:43.694Z,5.94
2023-01-13T09:43:56.474Z,5.89
2023-01-13T09:47:04.327Z,5.84
2023-01-13T09:50:31.051Z,5.93
2023-01-13T09:53:57.308Z,6.04
2023-01-13T09:57:00.016Z,6.04
2023-01-13T10:00:03.606Z,5.92
2023-01-13T10:03:26.024Z,5.88
2023-01-13T10:06:38.674Z,5.81
2023-01-13T10:09:53.535Z,5.85
2023-01-13T10:13:14.178Z,5.95
2023-01-13T10:16:28.395Z,6.02
2023-01-13T10:20:15.093Z,6.09
2023-01-13T10:23:50.557Z,6.06
2023-01-13T10:27:16.817Z,6.12
2023-01-13T10:30:31.268Z,6.05
2023-01-13T10:33:33.784Z,6.20
2023-01-13T10:36:35.974Z,6.04
2023-01-13T10:39:44.819Z,6.10
2023-01-13T10:42:46.940Z,6.17
2023-01-13T10:45:58.206Z,6.57
2023-01-13T10:49:03.851Z,6.69
2023-01-13T10:52:26.880Z,6.40
2023-01-13T10:55:34.406Z,6.69
2023-01-13T10:58:36.809Z,6.51
2023-01-13T11:01:42.879Z,6.39
2023-01-13T11:05:02.602Z,6.23
2023-01-13T11:08:05.258Z,6.19
2023-01-13T11:11:26.712Z,6.16
2023-01-13T11:14:41.525Z,6.10
2023-01-13T11:18:00.486Z,6.31
2023-01-13T11:21:06.713Z,6.33
2023-01-13T11:24:11.880Z,6.21
2023-01-13T11:27:38.086Z,6.17
2023-01-13T11:30:56.553Z,6.20
2023-01-13T11:34:04.860Z,6.17
2023-01-13T11:37:21.321Z,6.15
2023-01-13T11:40:49.287Z,6.15
2023-01-13T11:43:59.124Z,6.15
2023-01-13T11:47:01.688Z,6.06
2023-01-13T11:50:07.438Z,6.04
2023-01-13T11:53:26.871Z,6.14
2023-01-13T11:56:52.486Z,6.32
2023-01-13T12:00:04.014Z,6.32
2023-01-13T12:03:23.329Z,6.43
2023-01-13T12:06:35.904Z,6.64
2023-01-13T12:09:45.220Z,6.53
2023-01-13T12:13:07.719Z,6.43
2023-01-13T12:16:26.929Z,6.29
2023-01-13T12:19:30.997Z,6.42
2023-01-13T12:22:35.960Z,6.32
2023-01-13T12:25:50.480Z,6.44
2023-01-13T12:29:28.359Z,6.56
2023-01-13T12:32:38.086Z,6.24
2023-01-13T12:35:49.150Z,6.30
2023-01-13T12:38:59.430Z,6.35
2023-01-13T12:42:35.226Z,6.53
2023-01-13T12:45:37.597Z,6.35
2023-01-13T12:48:54.703Z,6.39
2023-01-13T12:51:56.986Z,6.23
2023-01-13T12:55:02.822Z,6.37
2023-01-13T12:58:08.190Z,6.52
2023-01-13T13:01:15.188Z,6.54
2023-01-13T13:04:51.155Z,6.62
2023-01-13T13:08:07.407Z,6.66
2023-01-13T13:11:53.733Z,6.99
2023-01-13T13:14:55.828Z,6.79
2023-01-13T13:18:16.983Z,6.92
2023-01-13T13:21:19.188Z,6.78
2023-01-13T13:24:21.749Z,6.86
2023-01-13T13:27:48.910Z,6.63
2023-01-13T13:31:05.744Z,6.73
2023-01-13T13:34:29.320Z,7.19
2023-01-13T13:38:15.497Z,7.09
2023-01-13T13:41:41.386Z,7.20
2023-01-13T13:45:06.551Z,7.54
2023-01-13T13:48:26.738Z,7.52
2023-01-13T13:51:39.197Z,7.32
2023-01-13T13:54:47.605Z,7.17
2023-01-13T13:57:52.705Z,7.02
2023-01-13T14:00:56.291Z,7.01
2023-01-13T14:04:21.418Z,7.13
2023-01-13T14:07:23.628Z,7.06
2023-01-13T14:10:36.128Z,7.04
2023-01-13T14:13:38.282Z,7.09
2023-01-13T14:16:41.256Z,7.15
2023-01-13T14:19:47.631Z,7.28
2023-01-13T14:22:53.225Z,7.25
2023-01-13T14:26:00.851Z,7.19
2023-01-13T14:29:04.155Z,7.18
2023-01-13T14:32:07.260Z,7.22
2023-01-13T14:35:10.408Z,7.26
2023-01-13T14:38:16.318Z,7.45
2023-01-13T14:41:22.823Z,7.38
2023-01-13T14:44:30.797Z,7.30
2023-01-13T14:47:34.013Z,7.35
2023-01-13T14:50:36.718Z,7.35
2023-01-13T14:53:46.840Z,7.28
2023-01-13T14:56:55.060Z,7.36
2023-01-13T15:00:15.759Z,7.41
2023-01-13T15:03:20.714Z,7.77
2023-01-13T15:06:25.417Z,7.75
2023-01-13T15:09:33.291Z,7.56
2023-01-13T15:12:40.685Z,7.63
2023-01-13T15:15:42.906Z,7.46
2023-01-13T15:18:45.670Z,7.37
2023-01-13T15:21:47.779Z,7.35
2023-01-13T15:24:50.213Z,7.47
2023-01-13T15:27:52.980Z,7.45
2023-01-13T15:31:00.535Z,7.45
2023-01-13T15:34:02.719Z,7.42
2023-01-13T15:37:05.057Z,7.40
2023-01-13T15:40:23.720Z,7.45
2023-01-13T15:43:44.857Z,7.27
2023-01-13T15:46:47.305Z,7.37
2023-01-13T15:49:49.692Z,7.51
2023-01-13T15:52:51.790Z,7.51
2023-01-13T15:55:57.620Z,7.58
2023-01-13T15:58:59.760Z,7.46
2023-01-13T16:02:02.185Z,7.43
2023-01-13T16:05:06.057Z,7.37
2023-01-13T16:08:18.882Z,7.41
2023-01-13T16:11:21.294Z,7.33
2023-01-13T16:14:23.487Z,7.33
2023-01-13T16:17:30.225Z,7.40
2023-01-13T16:20:32.325Z,7.35
2023-01-13T16:23:34.743Z,7.35
2023-01-13T16:26:38.853Z,7.50
2023-01-13T16:29:41.962Z,7.56
2023-01-13T16:32:44.077Z,7.35
2023-01-13T16:36:10.523Z,7.24
